Time;durP1;ratioP1;P1;durP2;ratioP2;P2;SDS_P1;SDS_P2;PMS_P1;PMS_P2;Temp;Humidity;BMP_temperature;BMP_pressure;BME280_temperature;BME280_humidity;BME280_pressure;Samples;Min_cycle;Max_cycle;Signal;HPM_P1;HPM_P2
2021/12/29 00:01:17;;;;;;;3.05;0.60;;;17.10;99.90;;;;;;5052258;28;20044;-67
2021/12/29 00:03:44;;;;;;;3.58;0.60;;;17.30;99.90;;;;;;5053416;28;20017;-67
2021/12/29 00:06:12;;;;;;;2.08;0.60;;;17.60;99.90;;;;;;5049115;28;20025;-68
2021/12/29 00:08:39;;;;;;;2.90;0.75;;;17.90;99.90;;;;;;5034846;28;20041;-68
2021/12/29 00:11:07;;;;;;;3.58;0.75;;;17.70;99.90;;;;;;5035175;28;20035;-68
2021/12/29 00:13:34;;;;;;;4.97;0.80;;;17.60;99.90;;;;;;5033524;28;20068;-68
2021/12/29 00:16:03;;;;;;;3.05;0.50;;;17.60;99.90;;;;;;5041900;28;20028;-68
2021/12/29 00:18:33;;;;;;;3.90;0.63;;;17.70;99.90;;;;;;5039327;28;20037;-68
2021/12/29 00:21:02;;;;;;;4.32;0.63;;;17.80;99.90;;;;;;5034932;28;20793;-68
2021/12/29 00:23:29;;;;;;;4.72;0.85;;;17.80;99.90;;;;;;5053915;28;20393;-67
2021/12/29 00:25:56;;;;;;;6.07;0.90;;;17.90;99.90;;;;;;5052394;28;20476;-68
2021/12/29 00:28:24;;;;;;;2.88;0.38;;;18.10;99.90;;;;;;5053864;28;20028;-69
2021/12/29 00:30:51;;;;;;;2.47;0.30;;;18.20;99.90;;;;;;5052939;28;20014;-68
2021/12/29 00:33:19;;;;;;;2.65;0.32;;;18.60;99.90;;;;;;5035737;28;20029;-69
2021/12/29 00:35:47;;;;;;;2.88;0.30;;;18.80;99.90;;;;;;5038717;28;20033;-69
2021/12/29 00:38:15;;;;;;;2.92;0.35;;;18.70;99.90;;;;;;5052506;28;20049;-69
2021/12/29 00:40:42;;;;;;;3.25;0.43;;;18.60;99.90;;;;;;5053586;28;20025;-69
2021/12/29 00:43:10;;;;;;;3.25;0.63;;;18.60;99.90;;;;;;5052577;28;20033;-68
2021/12/29 00:45:39;;;;;;;1.70;0.45;;;18.70;99.90;;;;;;5054945;28;20025;-68
2021/12/29 00:48:11;;;;;;;3.70;0.55;;;18.70;99.90;;;;;;5050243;28;20386;-68
2021/12/29 00:50:40;;;;;;;2.60;0.35;;;19.00;99.90;;;;;;5053202;28;20029;-68
2021/12/29 00:53:08;;;;;;;2.35;0.38;;;19.10;99.90;;;;;;5054939;28;20027;-67
2021/12/29 00:55:36;;;;;;;3.85;0.30;;;19.30;99.90;;;;;;5057625;28;20462;-68
2021/12/29 00:58:07;;;;;;;5.88;1.23;;;19.40;99.90;;;;;;5038694;28;20424;-68
2021/12/29 01:00:37;;;;;;;5.32;0.68;;;19.40;99.90;;;;;;5038125;28;20039;-68
2021/12/29 01:03:05;;;;;;;3.72;0.70;;;19.60;99.90;;;;;;5039194;28;20022;-67
2021/12/29 01:05:33;;;;;;;2.15;0.40;;;19.60;99.90;;;;;;5052367;28;20070;-69
2021/12/29 01:08:00;;;;;;;2.70;0.43;;;19.40;99.90;;;;;;5056245;28;20036;-68
2021/12/29 01:10:28;;;;;;;1.75;0.30;;;19.50;99.90;;;;;;5057118;28;20032;-68
2021/12/29 01:13:00;;;;;;;2.53;0.70;;;19.50;99.90;;;;;;5039061;28;20068;-68
2021/12/29 01:15:36;;;;;;;4.60;0.52;;;19.50;99.90;;;;;;5038495;28;20493;-69
2021/12/29 01:18:06;;;;;;;1.88;0.40;;;19.60;99.90;;;;;;5052236;28;20030;-70
2021/12/29 01:20:34;;;;;;;2.10;0.50;;;19.80;99.90;;;;;;5037903;28;20037;-69
2021/12/29 01:23:01;;;;;;;2.40;0.73;;;19.80;99.90;;;;;;5072025;28;20039;-69
2021/12/29 01:25:29;;;;;;;4.22;1.25;;;19.70;99.90;;;;;;5056967;28;20025;-69
2021/12/29 01:27:56;;;;;;;1.52;0.35;;;19.70;99.90;;;;;;5055379;28;20457;-70
2021/12/29 01:30:24;;;;;;;3.85;0.30;;;19.70;99.90;;;;;;5055606;28;20037;-69
2021/12/29 01:32:52;;;;;;;4.13;0.60;;;19.60;99.90;;;;;;5054833;28;20033;-69
2021/12/29 01:35:20;;;;;;;2.05;0.22;;;19.60;99.90;;;;;;5056572;28;20033;-69
2021/12/29 01:37:47;;;;;;;2.88;0.60;;;19.70;99.90;;;;;;5044950;28;20095;-69
2021/12/29 01:40:18;;;;;;;1.33;0.40;;;19.70;99.90;;;;;;5037496;28;20482;-70
2021/12/29 01:42:45;;;;;;;3.83;0.30;;;19.70;99.90;;;;;;5053011;28;20059;-70
2021/12/29 01:45:14;;;;;;;3.25;0.43;;;19.60;99.90;;;;;;5058144;28;20473;-70
2021/12/29 01:47:42;;;;;;;2.25;0.50;;;19.60;99.90;;;;;;5055621;28;20045;-70
2021/12/29 01:50:11;;;;;;;1.75;0.25;;;19.70;99.90;;;;;;5057402;28;20025;-70
2021/12/29 01:52:40;;;;;;;1.38;0.20;;;19.80;99.90;;;;;;5041619;28;20033;-69
2021/12/29 01:55:14;;;;;;;4.45;0.30;;;19.90;99.90;;;;;;5051457;28;20080;-70
2021/12/29 01:57:43;;;;;;;1.33;0.70;;;20.00;99.90;;;;;;5036994;28;20048;-70
2021/12/29 02:00:15;;;;;;;5.28;0.28;;;20.50;99.90;;;;;;5037042;28;20037;-69
2021/12/29 02:02:42;;;;;;;2.22;0.47;;;20.70;99.90;;;;;;5052551;28;20024;-69
2021/12/29 02:05:10;;;;;;;2.45;0.30;;;20.80;99.90;;;;;;5055906;28;20037;-70
2021/12/29 02:07:38;;;;;;;5.93;0.52;;;20.90;99.90;;;;;;5053870;28;20489;-69
2021/12/29 02:10:07;;;;;;;2.72;0.30;;;20.90;99.90;;;;;;5056582;28;20446;-70
2021/12/29 02:12:36;;;;;;;5.55;0.50;;;20.90;99.90;;;;;;5052111;28;20090;-70
2021/12/29 02:15:08;;;;;;;6.30;0.70;;;20.90;99.90;;;;;;5055887;28;20029;-70
2021/12/29 02:17:36;;;;;;;1.75;0.30;;;20.70;99.90;;;;;;5054212;28;20118;-69
2021/12/29 02:20:06;;;;;;;2.80;0.50;;;20.60;99.90;;;;;;5052253;28;20459;-70
2021/12/29 02:22:42;;;;;;;2.20;0.70;;;20.50;99.90;;;;;;5053778;28;20025;-70
2021/12/29 02:27:48;;;;;;;;;;;20.30;99.90;;;;;;5055089;28;20036;-70
2021/12/29 02:30:17;;;;;;;2.83;0.40;;;20.30;99.90;;;;;;5053363;28;19912;-70
2021/12/29 02:32:45;;;;;;;3.95;0.30;;;20.20;99.90;;;;;;5053055;28;20135;-70
2021/12/29 02:35:15;;;;;;;1.08;0.20;;;20.20;99.90;;;;;;5050476;28;20108;-70
2021/12/29 02:37:43;;;;;;;1.27;0.20;;;20.20;99.90;;;;;;5066159;28;20119;-69
2021/12/29 02:40:12;;;;;;;2.97;0.45;;;20.30;99.90;;;;;;5054408;28;20122;-69
2021/12/29 02:42:41;;;;;;;3.28;0.50;;;20.50;99.90;;;;;;5053629;28;20029;-70
2021/12/29 02:45:13;;;;;;;4.63;0.45;;;20.50;99.90;;;;;;5052847;28;20029;-71
2021/12/29 02:47:42;;;;;;;3.50;0.63;;;20.50;99.90;;;;;;5051929;28;20045;-70
2021/12/29 02:50:10;;;;;;;1.17;0.20;;;20.60;99.90;;;;;;5052528;28;20401;-71
2021/12/29 02:52:37;;;;;;;2.42;0.38;;;20.70;99.90;;;;;;5053053;28;20466;-70
2021/12/29 02:55:05;;;;;;;1.60;0.20;;;20.70;99.90;;;;;;5051986;28;20116;-70
2021/12/29 02:57:32;;;;;;;3.50;0.60;;;20.70;99.90;;;;;;5051840;28;20044;-71
2021/12/29 02:59:59;;;;;;;3.00;0.63;;;20.70;99.90;;;;;;5050567;28;20064;-72
2021/12/29 03:02:27;;;;;;;1.98;0.30;;;20.70;99.90;;;;;;5048146;28;20033;-71
2021/12/29 03:04:58;;;;;;;2.75;0.50;;;20.60;99.90;;;;;;5050233;28;20416;-71
2021/12/29 03:07:25;;;;;;;3.90;0.35;;;20.60;99.90;;;;;;5051667;28;20619;-70
2021/12/29 03:09:53;;;;;;;3.42;1.02;;;20.50;99.90;;;;;;5052799;28;20467;-70
2021/12/29 03:12:20;;;;;;;1.20;0.40;;;20.30;99.90;;;;;;5051680;28;20045;-70
2021/12/29 03:14:54;;;;;;;2.75;0.65;;;20.20;99.90;;;;;;5053376;28;20074;-70
2021/12/29 03:17:21;;;;;;;4.80;0.55;;;20.00;99.90;;;;;;5038547;28;20026;-70
2021/12/29 03:19:49;;;;;;;6.18;0.57;;;19.80;99.90;;;;;;5037183;28;20045;-70
2021/12/29 03:22:17;;;;;;;2.97;0.50;;;19.80;99.90;;;;;;5044685;28;20071;-70
2021/12/29 03:24:44;;;;;;;6.05;0.65;;;19.70;99.90;;;;;;5053426;28;20021;-70
2021/12/29 03:27:11;;;;;;;3.45;0.40;;;19.70;99.90;;;;;;5051296;28;20033;-70
2021/12/29 03:29:38;;;;;;;4.20;0.40;;;19.70;99.90;;;;;;5053236;28;20044;-70
2021/12/29 03:32:09;;;;;;;2.85;0.40;;;19.70;99.90;;;;;;5051365;28;20037;-70
2021/12/29 03:34:36;;;;;;;3.22;0.43;;;19.80;99.90;;;;;;5050948;28;20029;-71
2021/12/29 03:37:04;;;;;;;3.35;0.40;;;19.90;99.90;;;;;;5052141;28;20098;-70
2021/12/29 03:39:38;;;;;;;3.50;0.43;;;19.90;99.90;;;;;;5052895;28;20183;-71
2021/12/29 03:42:06;;;;;;;;;;;20.00;99.90;;;;;;5052554;28;20029;-71
2021/12/29 03:44:34;;;;;;;2.75;0.35;;;20.10;99.90;;;;;;5052743;28;19909;-70
2021/12/29 03:47:01;;;;;;;2.13;0.40;;;20.20;99.90;;;;;;5050123;28;20059;-70
2021/12/29 03:49:28;;;;;;;3.55;0.68;;;20.20;99.90;;;;;;5050709;28;20029;-70
2021/12/29 03:51:56;;;;;;;2.00;0.50;;;20.20;99.90;;;;;;5048946;28;20036;-70
2021/12/29 03:54:23;;;;;;;6.05;1.15;;;20.20;99.90;;;;;;5051282;28;20424;-70
2021/12/29 03:56:51;;;;;;;12.80;3.40;;;20.20;99.90;;;;;;5044789;28;20504;-71
2021/12/29 03:59:18;;;;;;;8.48;1.40;;;20.20;99.90;;;;;;5050596;28;20017;-71
2021/12/29 04:01:50;;;;;;;5.53;0.93;;;20.10;99.90;;;;;;5050472;28;20021;-71
2021/12/29 04:04:17;;;;;;;3.10;0.68;;;20.10;99.90;;;;;;5050752;28;20024;-70
2021/12/29 04:06:44;;;;;;;4.03;0.93;;;20.20;99.90;;;;;;5051817;28;20025;-71
2021/12/29 04:09:12;;;;;;;3.28;0.40;;;20.30;99.90;;;;;;5052361;28;20027;-70
2021/12/29 04:11:39;;;;;;;6.28;0.50;;;20.40;99.90;;;;;;5045215;28;20197;-70
2021/12/29 04:14:07;;;;;;;4.32;0.50;;;20.50;99.90;;;;;;5031394;28;20493;-71
2021/12/29 04:16:41;;;;;;;5.63;0.50;;;20.60;99.90;;;;;;5039213;28;20032;-71
2021/12/29 04:22:08;;;;;;;1.98;0.40;;;20.50;99.90;;;;;;5030300;28;20061;-71
2021/12/29 04:24:39;;;;;;;3.00;0.60;;;20.40;99.90;;;;;;5032377;28;20044;-71
2021/12/29 04:27:06;;;;;;;2.42;0.38;;;20.40;99.90;;;;;;5042169;28;20030;-71
2021/12/29 04:29:34;;;;;;;2.60;0.43;;;20.30;99.90;;;;;;5051080;28;20024;-71
2021/12/29 04:32:01;;;;;;;3.60;0.45;;;20.20;99.90;;;;;;5048283;28;20358;-71
2021/12/29 04:34:28;;;;;;;2.47;0.38;;;20.20;99.90;;;;;;5067677;28;20036;-71
2021/12/29 04:36:56;;;;;;;4.13;0.40;;;20.20;99.90;;;;;;5046295;28;20018;-71
2021/12/29 04:39:23;;;;;;;3.60;0.40;;;20.20;99.90;;;;;;5037685;28;20021;-71
2021/12/29 04:41:50;;;;;;;4.25;1.17;;;20.20;99.90;;;;;;5049959;28;20025;-71
2021/12/29 04:44:17;;;;;;;3.70;0.40;;;20.30;99.90;;;;;;5052005;28;20030;-71
2021/12/29 04:46:46;;;;;;;3.42;1.15;;;20.30;99.90;;;;;;5049836;28;20437;-71
2021/12/29 04:49:21;;;;;;;3.33;0.40;;;20.30;99.90;;;;;;5044584;28;20152;-71
2021/12/29 04:52:02;;;;;;;5.72;0.40;;;20.30;99.90;;;;;;5063030;28;20040;-71
2021/12/29 04:54:33;;;;;;;3.67;0.50;;;20.40;99.90;;;;;;5050625;28;20087;-71
2021/12/29 04:57:01;;;;;;;4.78;0.68;;;20.40;99.90;;;;;;5041750;28;20498;-71
2021/12/29 04:59:29;;;;;;;3.50;0.70;;;20.40;99.90;;;;;;5031867;28;20033;-70
2021/12/29 05:01:57;;;;;;;3.65;0.90;;;20.40;99.90;;;;;;5041155;28;20084;-71
2021/12/29 05:04:35;;;;;;;2.80;0.40;;;20.50;99.90;;;;;;5050080;28;20040;-71
2021/12/29 05:09:48;;;;;;;9.50;0.98;;;20.60;99.90;;;;;;5031991;28;20079;-71
2021/12/29 05:12:15;;;;;;;4.93;0.50;;;20.70;99.90;;;;;;5044337;28;20037;-71
2021/12/29 05:14:43;;;;;;;3.03;0.40;;;20.70;99.90;;;;;;5049536;28;20025;-71
2021/12/29 05:17:10;;;;;;;4.53;0.55;;;20.70;99.90;;;;;;5050186;28;20033;-71
2021/12/29 05:19:40;;;;;;;2.78;0.95;;;20.70;99.90;;;;;;5050732;28;20033;-71
2021/12/29 05:22:07;;;;;;;5.47;0.60;;;20.70;99.90;;;;;;5051145;28;20029;-70
2021/12/29 05:24:35;;;;;;;3.53;0.40;;;20.80;99.90;;;;;;5050752;28;20082;-69
2021/12/29 05:27:02;;;;;;;6.40;0.52;;;20.70;99.90;;;;;;5049206;28;20017;-70
2021/12/29 05:29:29;;;;;;;2.88;0.30;;;20.80;99.90;;;;;;5051764;28;20060;-69
2021/12/29 05:31:57;;;;;;;4.35;0.65;;;21.10;99.90;;;;;;5050240;28;20033;-70
2021/12/29 05:34:24;;;;;;;2.22;0.30;;;21.30;99.90;;;;;;5052364;28;20025;-72
2021/12/29 05:36:51;;;;;;;3.25;0.43;;;21.40;99.90;;;;;;5049456;28;20489;-71
2021/12/29 05:39:19;;;;;;;3.22;1.00;;;21.60;99.90;;;;;;5049489;28;20041;-71
2021/12/29 05:41:46;;;;;;;4.05;0.20;;;21.60;99.90;;;;;;5047937;28;20032;-70
2021/12/29 05:44:13;;;;;;;2.75;0.50;;;21.80;99.90;;;;;;5050006;28;20393;-71
2021/12/29 05:46:41;;;;;;;2.95;0.20;;;21.80;99.90;;;;;;5055325;28;20450;-70
2021/12/29 05:49:08;;;;;;;1.77;0.20;;;21.80;99.90;;;;;;5054055;28;20052;-71
2021/12/29 05:51:35;;;;;;;2.22;0.30;;;21.90;99.90;;;;;;5053027;28;20033;-70
2021/12/29 05:54:03;;;;;;;1.20;0.30;;;22.00;99.90;;;;;;5056198;28;20028;-70
2021/12/29 05:56:30;;;;;;;4.75;0.55;;;22.00;99.90;;;;;;5054933;28;20040;-71
2021/12/29 05:59:01;;;;;;;2.47;0.30;;;22.00;99.90;;;;;;5054262;28;20021;-70
2021/12/29 06:01:29;;;;;;;2.83;0.40;;;22.20;99.90;;;;;;5052222;28;20036;-70
2021/12/29 06:03:56;;;;;;;3.38;0.28;;;22.40;99.90;;;;;;5051575;28;20056;-71
2021/12/29 06:06:23;;;;;;;4.15;0.57;;;22.40;99.90;;;;;;5039504;28;20164;-71
2021/12/29 06:08:51;;;;;;;1.50;0.10;;;22.40;99.90;;;;;;5054056;28;20032;-70
2021/12/29 06:11:18;;;;;;;3.33;0.47;;;22.40;99.90;;;;;;5054133;28;20017;-70
2021/12/29 06:13:45;;;;;;;4.93;0.38;;;22.20;99.90;;;;;;5055080;28;20090;-71
2021/12/29 06:16:12;;;;;;;2.72;0.22;;;22.20;99.90;;;;;;5054097;28;20024;-70
2021/12/29 06:18:40;;;;;;;1.00;0.30;;;22.30;99.90;;;;;;5053488;28;20436;-71
2021/12/29 06:21:07;;;;;;;3.22;0.30;;;22.40;99.90;;;;;;5052748;28;20091;-71
2021/12/29 06:23:34;;;;;;;1.60;0.30;;;22.60;99.90;;;;;;5054906;28;20021;-72
2021/12/29 06:26:01;;;;;;;1.60;0.13;;;22.60;99.90;;;;;;5052570;28;20029;-71
2021/12/29 06:28:28;;;;;;;2.58;0.50;;;22.20;99.90;;;;;;5053639;28;20032;-71
2021/12/29 06:30:56;;;;;;;0.70;0.30;;;22.20;99.90;;;;;;5047145;28;20036;-70
2021/12/29 06:33:23;;;;;;;2.50;0.28;;;22.00;99.90;;;;;;5035791;28;20036;-72
2021/12/29 06:35:50;;;;;;;3.28;0.38;;;22.30;99.90;;;;;;5035934;28;20045;-71
2021/12/29 06:38:17;;;;;;;4.25;0.30;;;22.40;99.90;;;;;;5046074;28;20036;-70
2021/12/29 06:40:45;;;;;;;1.10;0.30;;;22.10;99.90;;;;;;5048562;28;20045;-71
2021/12/29 06:43:12;;;;;;;4.55;0.20;;;21.80;99.90;;;;;;5042244;28;20028;-71
2021/12/29 06:45:39;;;;;;;6.43;0.93;;;22.10;99.90;;;;;;5054084;28;20507;-70
2021/12/29 06:48:07;;;;;;;4.70;0.43;;;22.60;99.90;;;;;;5053823;28;20072;-70
2021/12/29 06:50:35;;;;;;;3.53;0.80;;;23.60;99.90;;;;;;5054723;28;20025;-71
2021/12/29 06:53:02;;;;;;;11.73;5.70;;;24.20;99.90;;;;;;5053257;28;20032;-70
2021/12/29 06:55:30;;;;;;;4.85;1.40;;;23.20;99.90;;;;;;5054893;28;20059;-70
2021/12/29 06:57:57;;;;;;;1.77;0.47;;;22.80;99.90;;;;;;5054475;28;20413;-70
2021/12/29 07:00:24;;;;;;;4.70;0.32;;;22.10;99.90;;;;;;5055933;28;20053;-70
2021/12/29 07:02:52;;;;;;;2.85;0.30;;;21.90;99.90;;;;;;5052259;28;20390;-70
2021/12/29 07:05:19;;;;;;;4.15;0.40;;;21.90;99.90;;;;;;5053533;28;20029;-71
2021/12/29 07:07:49;;;;;;;3.67;0.20;;;21.60;99.90;;;;;;5038145;28;20099;-70
2021/12/29 07:10:16;;;;;;;2.92;0.28;;;21.60;99.90;;;;;;5034466;28;20066;-71
2021/12/29 07:12:44;;;;;;;4.90;0.52;;;22.20;99.90;;;;;;5051185;28;20511;-70
2021/12/29 07:15:11;;;;;;;5.55;0.35;;;22.00;99.90;;;;;;5052224;28;20485;-69
2021/12/29 07:17:38;;;;;;;2.50;0.25;;;21.80;99.90;;;;;;5051086;28;20120;-70
2021/12/29 07:20:06;;;;;;;4.22;0.50;;;21.70;99.90;;;;;;5052535;28;20405;-71
2021/12/29 07:22:34;;;;;;;4.40;0.52;;;21.80;99.90;;;;;;5052503;28;20029;-69
2021/12/29 07:25:01;;;;;;;4.70;0.50;;;22.90;99.90;;;;;;5053615;28;20116;-69
2021/12/29 07:27:29;;;;;;;2.25;0.20;;;24.70;99.90;;;;;;5047025;28;20044;-70
2021/12/29 07:29:56;;;;;;;2.03;0.20;;;24.30;99.90;;;;;;5052494;28;20075;-71
2021/12/29 07:32:23;;;;;;;1.65;0.30;;;23.20;99.90;;;;;;5047649;28;20029;-71
2021/12/29 07:34:50;;;;;;;5.90;0.47;;;22.90;99.90;;;;;;5032814;28;20381;-70
2021/12/29 07:37:20;;;;;;;3.15;0.10;;;22.40;99.90;;;;;;5045226;28;20029;-71
2021/12/29 07:39:48;;;;;;;0.80;0.10;;;21.90;99.90;;;;;;5052701;28;20033;-70
2021/12/29 07:42:15;;;;;;;4.97;0.30;;;21.70;99.90;;;;;;5052789;28;20036;-70
2021/12/29 07:44:45;;;;;;;3.25;0.55;;;21.60;99.90;;;;;;5053409;28;20021;-70
2021/12/29 07:47:14;;;;;;;2.67;0.47;;;21.80;99.90;;;;;;5041167;28;20049;-70
2021/12/29 07:49:41;;;;;;;1.77;0.20;;;22.00;99.90;;;;;;5032328;28;20073;-71
2021/12/29 07:52:09;;;;;;;4.35;0.55;;;22.30;99.90;;;;;;5034478;28;20060;-70
2021/12/29 07:54:36;;;;;;;4.53;0.57;;;22.90;99.90;;;;;;5043094;28;20028;-72
2021/12/29 07:57:03;;;;;;;1.70;0.10;;;24.30;99.90;;;;;;5050349;28;20029;-70
2021/12/29 07:59:31;;;;;;;4.88;0.60;;;23.00;99.90;;;;;;5053163;28;20021;-69
2021/12/29 08:01:58;;;;;;;6.68;0.20;;;22.40;99.90;;;;;;5051941;28;20485;-69
2021/12/29 08:04:25;;;;;;;2.38;0.20;;;21.80;99.90;;;;;;5050917;28;20039;-70
2021/12/29 08:06:53;;;;;;;3.78;0.40;;;21.70;99.90;;;;;;5052045;28;20017;-69
2021/12/29 08:09:20;;;;;;;3.88;0.30;;;21.30;99.90;;;;;;5052761;28;20032;-68
2021/12/29 08:11:47;;;;;;;4.72;0.50;;;21.10;99.90;;;;;;5050614;28;20037;-69
2021/12/29 08:14:15;;;;;;;4.95;0.50;;;20.90;99.90;;;;;;5052755;28;20021;-69
2021/12/29 08:16:42;;;;;;;1.48;0.20;;;20.80;99.90;;;;;;5050035;28;20032;-69
2021/12/29 08:19:09;;;;;;;2.80;0.22;;;20.70;99.90;;;;;;5052987;28;20032;-69
2021/12/29 08:21:37;;;;;;;1.95;0.20;;;20.60;99.90;;;;;;5045978;28;20196;-68
2021/12/29 08:24:04;;;;;;;2.67;0.30;;;20.60;99.90;;;;;;5051455;28;20025;-69
2021/12/29 08:26:31;;;;;;;3.72;0.30;;;20.60;99.90;;;;;;5047033;28;20501;-69
2021/12/29 08:29:01;;;;;;;2.92;0.40;;;20.50;99.90;;;;;;5033890;28;20429;-68
2021/12/29 08:31:28;;;;;;;4.45;0.80;;;20.50;99.90;;;;;;5042656;28;20136;-68
2021/12/29 08:33:57;;;;;;;2.90;0.57;;;20.50;99.90;;;;;;5052519;28;20052;-69
2021/12/29 08:36:24;;;;;;;0.98;0.47;;;20.40;99.90;;;;;;5050492;28;20103;-68
2021/12/29 08:38:52;;;;;;;1.67;0.20;;;20.40;99.90;;;;;;5052440;28;20465;-69
2021/12/29 08:41:19;;;;;;;1.05;0.30;;;20.40;99.90;;;;;;5048131;28;20028;-69
2021/12/29 08:43:47;;;;;;;3.65;0.30;;;20.30;99.90;;;;;;5032317;28;20104;-69
2021/12/29 08:46:16;;;;;;;4.00;0.40;;;20.30;99.90;;;;;;5036049;28;20535;-69
2021/12/29 08:48:44;;;;;;;5.72;0.30;;;20.20;99.90;;;;;;5052473;28;20033;-70
2021/12/29 08:51:11;;;;;;;1.80;0.30;;;20.20;99.90;;;;;;5051174;28;20022;-68
2021/12/29 08:53:39;;;;;;;1.90;0.30;;;20.20;99.90;;;;;;5051170;28;20029;-70
2021/12/29 08:56:07;;;;;;;2.22;0.30;;;20.20;99.90;;;;;;5051852;28;20033;-69
2021/12/29 08:58:34;;;;;;;5.55;0.40;;;20.20;99.90;;;;;;5033196;28;20034;-69
2021/12/29 09:01:02;;;;;;;1.60;0.20;;;20.20;99.90;;;;;;5034535;28;20033;-70
2021/12/29 09:03:30;;;;;;;1.70;0.30;;;20.00;99.90;;;;;;5052112;28;20028;-70
2021/12/29 09:05:57;;;;;;;5.78;0.30;;;20.00;99.90;;;;;;5049221;28;20032;-70
2021/12/29 09:08:24;;;;;;;1.50;0.40;;;20.00;99.90;;;;;;5034525;28;20064;-69
2021/12/29 09:10:53;;;;;;;2.00;0.28;;;19.90;99.90;;;;;;5049577;28;20099;-69
2021/12/29 09:13:21;;;;;;;0.90;0.20;;;19.90;99.90;;;;;;5033284;28;20029;-70
2021/12/29 09:15:49;;;;;;;2.80;0.52;;;19.90;99.90;;;;;;5050202;28;20013;-69
2021/12/29 09:18:17;;;;;;;2.88;0.40;;;19.90;99.90;;;;;;5034822;28;20394;-71
2021/12/29 09:20:46;;;;;;;2.53;0.60;;;19.80;99.90;;;;;;5037259;28;20086;-70
2021/12/29 09:23:14;;;;;;;3.05;0.50;;;19.80;99.90;;;;;;5066890;28;20037;-70
2021/12/29 09:25:44;;;;;;;2.45;0.40;;;19.80;99.90;;;;;;5034341;28;20021;-70
2021/12/29 09:28:14;;;;;;;1.88;0.20;;;19.80;99.90;;;;;;5053811;28;20036;-70
2021/12/29 09:30:44;;;;;;;1.85;0.43;;;19.70;99.90;;;;;;5055245;28;20451;-67
2021/12/29 09:33:15;;;;;;;3.92;0.40;;;19.70;99.90;;;;;;5054759;28;20025;-68
2021/12/29 09:35:43;;;;;;;2.95;0.30;;;19.70;99.90;;;;;;5055317;28;20017;-69
2021/12/29 09:38:11;;;;;;;4.88;0.30;;;19.60;99.90;;;;;;5035383;28;20037;-69
2021/12/29 09:40:39;;;;;;;4.57;0.25;;;19.60;99.90;;;;;;5035686;28;20076;-70
2021/12/29 09:43:07;;;;;;;0.90;0.30;;;19.50;99.90;;;;;;5053372;28;20444;-70
2021/12/29 09:45:40;;;;;;;4.22;0.55;;;19.50;99.90;;;;;;5054430;28;20036;-71
2021/12/29 09:48:07;;;;;;;1.60;0.40;;;19.50;99.90;;;;;;5054939;28;20102;-70
2021/12/29 09:50:36;;;;;;;2.38;0.47;;;19.50;99.90;;;;;;5054052;28;20025;-69
2021/12/29 09:53:04;;;;;;;3.38;0.60;;;19.50;99.90;;;;;;5053907;28;20025;-70
2021/12/29 09:55:32;;;;;;;3.03;0.75;;;19.50;99.90;;;;;;5055406;28;20032;-70
2021/12/29 09:58:00;;;;;;;4.53;0.70;;;19.50;99.90;;;;;;5054487;28;20060;-70
2021/12/29 10:00:39;;;;;;;3.42;0.38;;;19.40;99.90;;;;;;5054016;28;20263;-70
2021/12/29 10:03:11;;;;;;;3.65;0.35;;;19.40;99.90;;;;;;5054849;28;20021;-69
2021/12/29 10:05:41;;;;;;;2.53;0.40;;;19.40;99.90;;;;;;5037982;28;20049;-69
2021/12/29 10:08:15;;;;;;;3.35;0.75;;;19.40;99.90;;;;;;5053416;28;20103;-69
2021/12/29 10:10:47;;;;;;;4.07;0.30;;;19.30;99.90;;;;;;5048235;28;20051;-68
2021/12/29 10:13:15;;;;;;;2.25;0.30;;;19.30;99.90;;;;;;5054228;28;20025;-70
2021/12/29 10:15:53;;;;;;;3.58;0.68;;;19.30;99.90;;;;;;5048653;28;20028;-69
2021/12/29 10:18:26;;;;;;;2.05;0.45;;;19.20;99.90;;;;;;5035084;28;20013;-70
2021/12/29 10:20:57;;;;;;;4.88;0.88;;;19.20;99.90;;;;;;5034784;28;20087;-70
2021/12/29 10:23:37;;;;;;;3.22;0.65;;;19.20;99.90;;;;;;5052304;28;20099;-70
2021/12/29 10:26:17;;;;;;;5.72;0.80;;;19.20;99.90;;;;;;5051530;28;21717;-70
2021/12/29 10:28:48;;;;;;;2.45;0.50;;;19.20;99.90;;;;;;5054496;28;20025;-69
2021/12/29 10:31:28;;;;;;;3.35;0.52;;;19.10;99.90;;;;;;5052494;28;20060;-69
2021/12/29 10:34:01;;;;;;;2.83;0.50;;;19.10;99.90;;;;;;5053617;28;20025;-69
2021/12/29 10:36:32;;;;;;;2.90;0.40;;;19.10;99.90;;;;;;5052488;28;20033;-69
2021/12/29 10:39:22;;;;;;;8.00;1.38;;;19.10;99.90;;;;;;5053354;28;20116;-69
2021/12/29 10:42:03;;;;;;;2.83;0.32;;;19.00;99.90;;;;;;5053068;28;20063;-69
2021/12/29 10:44:35;;;;;;;1.83;0.55;;;19.00;99.90;;;;;;5054168;28;20036;-68
2021/12/29 10:47:19;;;;;;;4.95;0.30;;;19.00;99.90;;;;;;5051387;28;20044;-68
2021/12/29 10:49:55;;;;;;;1.15;0.30;;;19.00;99.90;;;;;;5054075;28;20096;-69
2021/12/29 10:52:38;;;;;;;2.40;0.35;;;18.90;99.90;;;;;;5052622;28;20029;-70
2021/12/29 10:55:10;;;;;;;4.50;0.60;;;18.90;99.90;;;;;;5052883;28;20102;-69
2021/12/29 10:57:38;;;;;;;3.90;0.40;;;18.90;99.90;;;;;;5051307;28;20032;-69
2021/12/29 11:00:12;;;;;;;5.38;0.38;;;18.90;99.90;;;;;;5034425;28;20104;-69
2021/12/29 11:02:39;;;;;;;2.27;0.30;;;18.90;99.90;;;;;;5048920;28;20060;-70
2021/12/29 11:05:09;;;;;;;3.85;0.30;;;18.80;99.90;;;;;;5046179;28;20277;-69
2021/12/29 11:07:38;;;;;;;2.17;0.50;;;18.80;99.90;;;;;;5052305;28;20359;-70
2021/12/29 11:10:18;;;;;;;1.58;0.43;;;18.80;99.90;;;;;;5047948;28;20091;-70
2021/12/29 11:12:51;;;;;;;1.77;0.40;;;18.70;99.90;;;;;;5051603;28;20021;-70
2021/12/29 11:15:24;;;;;;;3.60;0.40;;;18.70;99.90;;;;;;5051966;28;20122;-70
2021/12/29 11:18:00;;;;;;;2.78;0.38;;;18.60;99.90;;;;;;5036045;28;20398;-70
2021/12/29 11:20:31;;;;;;;4.00;0.30;;;18.60;99.90;;;;;;5048957;28;20069;-69
2021/12/29 11:23:17;;;;;;;4.28;1.13;;;18.60;99.90;;;;;;5051929;28;20477;-70
2021/12/29 11:25:45;;;;;;;8.77;0.60;;;18.50;99.90;;;;;;5052602;28;20103;-69
2021/12/29 11:28:28;;;;;;;1.73;0.50;;;18.50;99.90;;;;;;5052481;28;20031;-70
2021/12/29 11:30:58;;;;;;;2.60;0.40;;;18.50;99.90;;;;;;5052387;28;20028;-70
2021/12/29 11:33:31;;;;;;;3.80;0.73;;;18.50;99.90;;;;;;5052117;28;20024;-70
2021/12/29 11:35:59;;;;;;;3.67;0.98;;;18.50;99.90;;;;;;5051718;28;20020;-69
2021/12/29 11:38:27;;;;;;;0.63;0.20;;;18.40;99.90;;;;;;5051496;28;20034;-70
2021/12/29 11:41:00;;;;;;;2.03;0.40;;;18.40;99.90;;;;;;5051946;28;20060;-69
2021/12/29 11:43:28;;;;;;;2.67;0.33;;;18.40;99.90;;;;;;5052837;28;20465;-69
2021/12/29 11:45:57;;;;;;;2.42;0.40;;;18.40;99.90;;;;;;5052508;28;20108;-70
2021/12/29 11:48:26;;;;;;;3.22;0.52;;;18.40;99.90;;;;;;5053225;28;20037;-70
2021/12/29 11:50:58;;;;;;;1.88;0.30;;;18.30;99.90;;;;;;5052581;28;20425;-70
2021/12/29 11:53:32;;;;;;;4.35;0.60;;;18.30;99.90;;;;;;5053211;28;20052;-70
2021/12/29 11:56:06;;;;;;;2.83;0.32;;;18.30;99.90;;;;;;5050927;28;20021;-70
2021/12/29 11:58:41;;;;;;;3.22;0.45;;;18.20;99.90;;;;;;5035384;28;20044;-70
2021/12/29 12:01:11;;;;;;;2.28;0.38;;;18.20;99.90;;;;;;5035022;28;20031;-69
2021/12/29 12:03:44;;;;;;;2.78;0.35;;;18.20;99.90;;;;;;5041955;28;20367;-69
2021/12/29 12:06:25;;;;;;;2.63;0.30;;;18.10;99.90;;;;;;5039685;28;20059;-69
2021/12/29 12:09:13;;;;;;;2.22;0.88;;;18.10;99.90;;;;;;5052535;28;20053;-69
2021/12/29 12:12:03;;;;;;;3.60;0.40;;;18.00;99.90;;;;;;5050683;28;20029;-69
2021/12/29 12:14:51;;;;;;;3.33;0.77;;;18.00;99.90;;;;;;5050716;28;20116;-69
2021/12/29 12:17:21;;;;;;;2.22;0.50;;;18.00;99.90;;;;;;5048664;28;20067;-69
2021/12/29 12:20:09;;;;;;;2.80;0.35;;;18.00;99.90;;;;;;5032471;28;20124;-69
2021/12/29 12:22:51;;;;;;;1.70;0.30;;;18.00;99.90;;;;;;5062966;28;20037;-70
2021/12/29 12:25:31;;;;;;;5.15;0.93;;;18.10;99.90;;;;;;5052313;28;20029;-69
2021/12/29 12:28:03;;;;;;;3.78;0.80;;;18.10;99.90;;;;;;5050392;28;20503;-69
2021/12/29 12:30:45;;;;;;;2.15;0.40;;;18.20;99.90;;;;;;5051267;28;20381;-69
2021/12/29 12:33:15;;;;;;;3.97;1.13;;;18.10;99.90;;;;;;5051764;28;20029;-69
2021/12/29 12:35:48;;;;;;;2.85;0.47;;;18.20;99.90;;;;;;5051721;28;20024;-69
2021/12/29 12:38:19;;;;;;;2.58;0.30;;;18.10;99.90;;;;;;5052022;28;20043;-69
2021/12/29 12:40:46;;;;;;;4.45;0.60;;;18.20;99.90;;;;;;5051721;28;20535;-68
2021/12/29 12:43:17;;;;;;;2.53;0.52;;;18.20;99.90;;;;;;5049819;28;20099;-69
2021/12/29 12:45:48;;;;;;;4.82;0.90;;;18.20;99.90;;;;;;5050694;28;20025;-68
2021/12/29 12:48:28;;;;;;;4.80;0.70;;;18.20;99.90;;;;;;5032620;28;20501;-69
2021/12/29 12:50:59;;;;;;;2.97;0.40;;;18.30;99.90;;;;;;5036580;28;20026;-69
2021/12/29 12:53:37;;;;;;;4.55;0.85;;;18.30;99.90;;;;;;5053393;28;20039;-69
2021/12/29 12:56:08;;;;;;;3.88;0.90;;;18.30;99.90;;;;;;5054113;28;20033;-69
2021/12/29 12:58:42;;;;;;;5.78;0.55;;;18.20;99.90;;;;;;5053757;28;20021;-69
2021/12/29 13:01:23;;;;;;;1.98;0.50;;;18.20;99.90;;;;;;5034962;28;20029;-68
2021/12/29 13:04:00;;;;;;;2.38;0.50;;;18.20;99.90;;;;;;5036763;28;20115;-69
2021/12/29 13:06:35;;;;;;;2.10;0.65;;;18.10;99.90;;;;;;5040908;28;20028;-69
2021/12/29 13:09:07;;;;;;;6.18;0.88;;;18.10;99.90;;;;;;5056103;28;20501;-69